createdAt,value
2019-05-29T00:00:01.527Z,96798.42
2019-05-29T00:00:34.014Z,96802.89
2019-05-29T00:01:04.391Z,96806.45
2019-05-29T00:01:33.769Z,96795.45
2019-05-29T00:02:02.579Z,96801.32
2019-05-29T00:02:30.907Z,96806.22
2019-05-29T00:02:59.756Z,96804.84
2019-05-29T00:03:29.079Z,96823.52
2019-05-29T00:03:58.023Z,96806.02
2019-05-29T00:04:26.261Z,96796.39
2019-05-29T00:04:56.154Z,96800.06
2019-05-29T00:05:25.401Z,96801.20
2019-05-29T00:05:54.378Z,96791.16
2019-05-29T00:06:23.242Z,96795.28
2019-05-29T00:06:52.076Z,96800.55
2019-05-29T00:07:22.169Z,96799.17
2019-05-29T00:07:51.008Z,96801.12
2019-05-29T00:08:19.777Z,96805.82
2019-05-29T00:08:48.831Z,96802.27
2019-05-29T00:09:18.455Z,96804.22
2019-05-29T00:09:47.407Z,96811.69
2019-05-29T00:10:15.997Z,96808.71
2019-05-29T00:10:45.313Z,96794.96
2019-05-29T00:11:14.428Z,96812.27
2019-05-29T00:11:43.266Z,96809.28
2019-05-29T00:12:17.534Z,96809.05
2019-05-29T00:12:42.436Z,96818.68
2019-05-29T00:13:12.357Z,96810.20
2019-05-29T00:13:41.534Z,96820.63
2019-05-29T00:14:25.015Z,96819.25
2019-05-29T00:14:40.382Z,96811.80
2019-05-29T00:15:10.365Z,96822.58
2019-05-29T00:15:39.567Z,96834.38
2019-05-29T00:16:08.307Z,96813.52
2019-05-29T00:16:37.462Z,96816.07
2019-05-29T00:17:06.419Z,96812.75
2019-05-29T00:17:35.279Z,96819.39
2019-05-29T00:18:03.551Z,96817.79
2019-05-29T00:18:32.715Z,96823.29
2019-05-29T00:19:01.719Z,96824.09
2019-05-29T00:19:31.004Z,96831.77
2019-05-29T00:19:59.563Z,96830.97
2019-05-29T00:20:30.193Z,96821.34
2019-05-29T00:20:59.184Z,96824.66
2019-05-29T00:21:27.743Z,96831.77
2019-05-29T00:21:56.136Z,96835.89
2019-05-29T00:22:25.283Z,96833.14
2019-05-29T00:22:54.130Z,96816.07
2019-05-29T00:23:22.957Z,96818.02
2019-05-29T00:23:51.271Z,96833.95
2019-05-29T00:24:21.119Z,96817.45
2019-05-29T00:24:50.088Z,96824.89
2019-05-29T00:25:19.158Z,96816.41
2019-05-29T00:25:47.537Z,96829.02
2019-05-29T00:26:16.610Z,96824.66
2019-05-29T00:26:45.983Z,96832.11
2019-05-29T00:27:15.640Z,96826.61
2019-05-29T00:27:44.375Z,96821.11
2019-05-29T00:28:14.756Z,96827.98
2019-05-29T00:28:44.997Z,96824.66
2019-05-29T00:29:13.887Z,96825.47
2019-05-29T00:29:43.276Z,96830.16
2019-05-29T00:30:13.498Z,96830.97
2019-05-29T00:30:42.581Z,96838.64
2019-05-29T00:31:12.180Z,96833.95
2019-05-29T00:31:41.411Z,96830.73
2019-05-29T00:32:11.973Z,96827.19
2019-05-29T00:32:41.408Z,96827.75
2019-05-29T00:33:10.263Z,96825.58
2019-05-29T00:33:38.993Z,96814.58
2019-05-29T00:34:07.561Z,96828.93
2019-05-29T00:34:36.457Z,96835.00
2019-05-29T00:35:08.316Z,96829.70
2019-05-29T00:35:37.256Z,96830.87
2019-05-29T00:36:06.451Z,96833.05
2019-05-29T00:36:35.637Z,96829.13
2019-05-29T00:37:04.458Z,96830.50
2019-05-29T00:37:32.726Z,96829.70
2019-05-29T00:38:01.684Z,96839.33
2019-05-29T00:38:30.579Z,96832.25
2019-05-29T00:38:59.404Z,96828.93
2019-05-29T00:39:28.063Z,96826.38
2019-05-29T00:39:56.618Z,96830.87
2019-05-29T00:40:25.656Z,96836.58
2019-05-29T00:40:54.536Z,96828.33
2019-05-29T00:41:23.271Z,96830.50
2019-05-29T00:41:52.257Z,96837.04
2019-05-29T00:42:21.071Z,96830.73
2019-05-29T00:42:49.903Z,96830.30
2019-05-29T00:43:18.405Z,96826.95
2019-05-29T00:43:47.504Z,96829.50
2019-05-29T00:44:17.460Z,96832.83
2019-05-29T00:44:47.965Z,96831.08
2019-05-29T00:45:17.715Z,96838.55
2019-05-29T00:45:47.376Z,96830.30
2019-05-29T00:46:22.152Z,96835.80
2019-05-29T00:46:51.174Z,96828.13
2019-05-29T00:47:19.502Z,96830.30
2019-05-29T00:47:49.808Z,96835.80
2019-05-29T00:48:18.950Z,96834.43
2019-05-29T00:48:48.916Z,96823.44
2019-05-29T00:49:18.124Z,96823.44
2019-05-29T00:49:47.580Z,96824.81
2019-05-29T00:50:16.408Z,96824.00
2019-05-29T00:50:45.681Z,96828.33
2019-05-29T00:51:14.916Z,96827.56
2019-05-29T00:51:44.038Z,96826.75
2019-05-29T00:52:14.199Z,96828.55
2019-05-29T00:52:43.586Z,96819.50
2019-05-29T00:53:12.231Z,96826.38
2019-05-29T00:53:42.355Z,96834.62
2019-05-29T00:54:12.484Z,96835.44
2019-05-29T00:54:41.736Z,96829.13
2019-05-29T00:55:10.536Z,96835.20
2019-05-29T00:55:39.385Z,96826.95
2019-05-29T00:56:08.540Z,96829.50
2019-05-29T00:56:38.117Z,96831.08
2019-05-29T00:57:08.677Z,96829.50
2019-05-29T00:57:37.592Z,96838.55
2019-05-29T00:58:06.798Z,96824.58
2019-05-29T00:58:35.808Z,96829.50
2019-05-29T00:59:04.175Z,96829.50
2019-05-29T00:59:33.638Z,96830.65
2019-05-29T01:00:02.506Z,96833.40
2019-05-29T01:00:35.753Z,96833.40
2019-05-29T01:01:04.543Z,96825.14
2019-05-29T01:01:33.877Z,96826.29
2019-05-29T01:02:03.848Z,96827.44
2019-05-29T01:02:36.149Z,96829.61
2019-05-29T01:03:05.095Z,96823.31
2019-05-29T01:03:34.267Z,96829.04
2019-05-29T01:04:02.853Z,96834.54
2019-05-29T01:04:32.094Z,96829.38
2019-05-29T01:05:00.613Z,96829.38
2019-05-29T01:05:29.519Z,96825.48
2019-05-29T01:05:58.752Z,96831.56
2019-05-29T01:06:27.493Z,96826.63
2019-05-29T01:06:56.199Z,96824.69
2019-05-29T01:07:25.053Z,96826.29
2019-05-29T01:07:53.674Z,96815.86
2019-05-29T01:08:22.864Z,96820.80
2019-05-29T01:08:51.186Z,96823.31
2019-05-29T01:09:20.741Z,96820.80
2019-05-29T01:09:51.120Z,96819.42
2019-05-29T01:10:20.828Z,96818.05
2019-05-29T01:10:49.202Z,96815.86
2019-05-29T01:11:18.963Z,96823.77
2019-05-29T01:11:48.130Z,96818.05
2019-05-29T01:12:17.334Z,96822.63
2019-05-29T01:12:45.611Z,96812.77
2019-05-29T01:13:15.156Z,96813.34
2019-05-29T01:13:44.791Z,96813.34
2019-05-29T01:14:13.837Z,96818.27
2019-05-29T01:14:50.335Z,96810.59
2019-05-29T01:15:15.460Z,96814.15
2019-05-29T01:15:44.519Z,96813.12
2019-05-29T01:16:13.395Z,96821.59
2019-05-29T01:16:41.615Z,96810.59
2019-05-29T01:17:12.195Z,96808.42
2019-05-29T01:17:41.250Z,96803.72
2019-05-29T01:18:10.059Z,96818.05
2019-05-29T01:18:38.316Z,96814.72
2019-05-29T01:19:25.213Z,96814.72
2019-05-29T01:19:54.020Z,96820.22
2019-05-29T01:20:23.437Z,96817.47
2019-05-29T01:20:52.029Z,96815.30
2019-05-29T01:21:20.862Z,96818.27
2019-05-29T01:21:49.725Z,96822.17
2019-05-29T01:22:18.703Z,96814.49
2019-05-29T01:22:47.990Z,96822.39
2019-05-29T01:23:16.574Z,96816.90
2019-05-29T01:23:45.540Z,96822.39
2019-05-29T01:24:14.215Z,96825.72
2019-05-29T01:24:43.378Z,96829.27
2019-05-29T01:25:14.456Z,96826.29
2019-05-29T01:25:43.752Z,96828.23
2019-05-29T01:26:12.495Z,96828.47
2019-05-29T01:26:42.189Z,96829.04
2019-05-29T01:27:11.030Z,96823.31
2019-05-29T01:27:39.881Z,96821.73
2019-05-29T01:28:08.164Z,96825.26
2019-05-29T01:28:37.618Z,96818.39
2019-05-29T01:29:06.427Z,96826.86
2019-05-29T01:29:35.665Z,96826.86
2019-05-29T01:30:05.371Z,96826.06
2019-05-29T01:30:34.649Z,96837.86
2019-05-29T01:31:04.107Z,96834.11
2019-05-29T01:31:34.294Z,96831.13
2019-05-29T01:32:02.811Z,96832.27
2019-05-29T01:32:31.621Z,96839.61
2019-05-29T01:33:00.474Z,96827.00
2019-05-29T01:33:29.745Z,96835.83
2019-05-29T01:33:58.286Z,96829.18
2019-05-29T01:34:27.486Z,96831.13
2019-05-29T01:34:56.350Z,96833.65
2019-05-29T01:35:25.565Z,96836.40
2019-05-29T01:35:54.215Z,96832.84
2019-05-29T01:36:24.171Z,96837.55
2019-05-29T01:36:53.208Z,96843.84
2019-05-29T01:37:22.314Z,96830.09
2019-05-29T01:37:50.669Z,96835.37
2019-05-29T01:38:19.636Z,96837.55
2019-05-29T01:38:48.225Z,96836.74
2019-05-29T01:39:17.596Z,96841.44
2019-05-29T01:39:45.855Z,96837.31
2019-05-29T01:40:21.134Z,96835.16
2019-05-29T01:40:45.940Z,96835.16
2019-05-29T01:41:15.140Z,96835.73
2019-05-29T01:41:43.826Z,96841.00
2019-05-29T01:42:13.441Z,96831.38
2019-05-29T01:42:42.237Z,96834.94
2019-05-29T01:43:11.676Z,96832.76
2019-05-29T01:43:40.061Z,96839.06
2019-05-29T01:44:08.897Z,96841.81
2019-05-29T01:44:38.228Z,96839.63
2019-05-29T01:45:08.778Z,96839.63
2019-05-29T01:45:37.329Z,96843.52
2019-05-29T01:46:06.479Z,96838.25
2019-05-29T01:46:35.658Z,96838.48
2019-05-29T01:47:04.539Z,96840.66
2019-05-29T01:47:33.966Z,96832.98
2019-05-29T01:48:03.136Z,96835.94
2019-05-29T01:48:31.701Z,96835.94
2019-05-29T01:49:00.907Z,96835.94
2019-05-29T01:49:29.161Z,96840.06
2019-05-29T01:49:58.173Z,96843.61
2019-05-29T01:50:27.979Z,96837.11
2019-05-29T01:50:56.886Z,96843.41
2019-05-29T01:51:26.347Z,96840.66
2019-05-29T01:51:55.301Z,96841.23
2019-05-29T01:52:24.861Z,96838.48
2019-05-29T01:52:53.741Z,96843.05
2019-05-29T01:53:22.272Z,96848.11
2019-05-29T01:53:52.110Z,96838.69
2019-05-29T01:54:21.669Z,96838.69
2019-05-29T01:54:51.038Z,96840.66
2019-05-29T01:55:19.744Z,96834.13
2019-05-29T01:55:49.021Z,96831.95
2019-05-29T01:56:18.026Z,96836.65
2019-05-29T01:56:47.451Z,96837.80
2019-05-29T01:57:16.097Z,96839.17
2019-05-29T01:57:44.930Z,96844.44
2019-05-29T01:58:15.621Z,96844.09
2019-05-29T01:58:44.730Z,96843.86
2019-05-29T01:59:13.010Z,96847.19
2019-05-29T01:59:41.931Z,96839.17
2019-05-29T02:00:12.746Z,96833.23
2019-05-29T02:00:42.238Z,96840.31
2019-05-29T02:01:10.839Z,96833.44
2019-05-29T02:01:39.991Z,96832.87
2019-05-29T02:02:08.663Z,96836.99
2019-05-29T02:02:37.658Z,96842.72
2019-05-29T02:03:06.286Z,96836.42
2019-05-29T02:03:35.148Z,96835.05
2019-05-29T02:04:03.736Z,96837.80
2019-05-29T02:04:32.931Z,96842.72
2019-05-29T02:05:01.304Z,96836.19
2019-05-29T02:05:30.804Z,96840.55
2019-05-29T02:06:00.369Z,96841.92
2019-05-29T02:06:29.354Z,96836.42
2019-05-29T02:06:58.145Z,96824.05
2019-05-29T02:07:28.271Z,96838.02
2019-05-29T02:07:57.252Z,96837.22
2019-05-29T02:08:26.074Z,96838.59
2019-05-29T02:08:54.339Z,96840.77
2019-05-29T02:09:24.255Z,96843.52
2019-05-29T02:09:52.992Z,96845.36
2019-05-29T02:10:22.285Z,96843.75
2019-05-29T02:10:50.526Z,96843.19
2019-05-29T02:11:19.538Z,96836.88
2019-05-29T02:11:48.861Z,96843.19
2019-05-29T02:12:19.291Z,96839.06
2019-05-29T02:12:47.828Z,96839.86
2019-05-29T02:13:17.277Z,96839.86
2019-05-29T02:13:46.553Z,96833.19
2019-05-29T02:14:16.390Z,96847.73
2019-05-29T02:14:44.868Z,96844.19
2019-05-29T02:15:23.752Z,96834.56
2019-05-29T02:15:45.117Z,96838.69
2019-05-29T02:16:13.696Z,96845.56
2019-05-29T02:16:42.249Z,96837.11
2019-05-29T02:17:11.094Z,96835.37
2019-05-29T02:17:40.098Z,96843.41
2019-05-29T02:18:09.088Z,96843.41
2019-05-29T02:18:37.439Z,96840.66
2019-05-29T02:19:06.598Z,96842.23
2019-05-29T02:19:35.447Z,96849.69
2019-05-29T02:20:06.350Z,96845.36
2019-05-29T02:20:34.848Z,96846.36
2019-05-29T02:21:03.753Z,96852.66
2019-05-29T02:21:32.636Z,96844.19
2019-05-29T02:22:02.487Z,96844.42
2019-05-29T02:22:31.834Z,96851.86
2019-05-29T02:23:00.442Z,96858.63
2019-05-29T02:23:29.057Z,96843.50
2019-05-29T02:23:57.944Z,96849.58
2019-05-29T02:24:27.473Z,96860.34
2019-05-29T02:24:56.086Z,96850.05
2019-05-29T02:25:26.358Z,96849.25
2019-05-29T02:25:55.485Z,96847.64
2019-05-29T02:26:24.429Z,96850.97
2019-05-29T02:26:53.412Z,96852.91
2019-05-29T02:27:23.496Z,96852.34
2019-05-29T02:27:52.456Z,96847.98
2019-05-29T02:28:20.958Z,96858.18
2019-05-29T02:28:49.915Z,96848.56
2019-05-29T02:29:18.793Z,96852.48
2019-05-29T02:29:48.023Z,96853.97
2019-05-29T02:30:18.679Z,96852.96
2019-05-29T02:30:47.416Z,96851.59
2019-05-29T02:31:17.764Z,96853.53
2019-05-29T02:31:46.544Z,96852.16
2019-05-29T02:32:14.791Z,96849.18
2019-05-29T02:32:43.972Z,96853.30
2019-05-29T02:33:12.824Z,96861.55
2019-05-29T02:33:42.154Z,96860.97
2019-05-29T02:34:10.815Z,96863.95
2019-05-29T02:34:42.288Z,96855.48
2019-05-29T02:35:11.247Z,96854.67
2019-05-29T02:35:40.202Z,96859.14
2019-05-29T02:36:08.476Z,96859.14
2019-05-29T02:36:37.485Z,96859.51
2019-05-29T02:37:06.156Z,96856.16
2019-05-29T02:37:35.436Z,96862.26
2019-05-29T02:38:04.077Z,96852.17
2019-05-29T02:38:32.919Z,96859.62
2019-05-29T02:39:02.104Z,96861.80
2019-05-29T02:39:31.794Z,96862.37
2019-05-29T02:40:00.281Z,96860.19
2019-05-29T02:40:30.102Z,96859.95
2019-05-29T02:40:59.009Z,96857.20
2019-05-29T02:41:29.892Z,96860.76
2019-05-29T02:41:58.645Z,96862.70
2019-05-29T02:42:29.159Z,96857.20
2019-05-29T02:42:58.410Z,96861.33
2019-05-29T02:43:28.140Z,96854.45
2019-05-29T02:43:57.305Z,96856.64
2019-05-29T02:44:27.611Z,96851.14
2019-05-29T02:44:56.752Z,96863.17
2019-05-29T02:45:49.292Z,96852.98
2019-05-29T02:45:55.862Z,96865.34
2019-05-29T02:46:26.513Z,96863.73
2019-05-29T02:46:55.884Z,96864.31
2019-05-29T02:47:26.096Z,96861.33
2019-05-29T02:47:55.845Z,96866.05
2019-05-29T02:48:25.106Z,96867.43
2019-05-29T02:48:55.403Z,96866.05
2019-05-29T02:49:25.594Z,96860.55
2019-05-29T02:49:54.112Z,96866.83
2019-05-29T02:50:24.126Z,96868.20
2019-05-29T02:50:53.162Z,96867.63
2019-05-29T02:51:22.546Z,96865.11
2019-05-29T02:51:52.593Z,96864.88
2019-05-29T02:52:21.952Z,96865.11
2019-05-29T02:52:50.919Z,96867.30
2019-05-29T02:53:20.225Z,96868.89
2019-05-29T02:53:48.992Z,96865.58
2019-05-29T02:54:20.179Z,96862.59
2019-05-29T02:54:49.131Z,96862.83
2019-05-29T02:55:18.202Z,96860.08
2019-05-29T02:55:46.460Z,96862.83
2019-05-29T02:56:16.872Z,96863.03
2019-05-29T02:56:48.822Z,96864.64
2019-05-29T02:57:20.606Z,96867.16
2019-05-29T02:57:50.323Z,96864.64
2019-05-29T02:58:21.389Z,96866.02
2019-05-29T02:58:51.991Z,96872.88
2019-05-29T02:59:23.263Z,96865.67
2019-05-29T02:59:52.690Z,96872.31
2019-05-29T03:00:27.967Z,96869.22
2019-05-29T03:00:57.994Z,96869.22
2019-05-29T03:01:27.921Z,96869.80
2019-05-29T03:01:57.574Z,96874.15
2019-05-29T03:02:30.212Z,96871.97
2019-05-29T03:02:59.961Z,96870.59
2019-05-29T03:03:32.210Z,96874.95
2019-05-29T03:03:59.359Z,96875.73
2019-05-29T03:04:30.340Z,96876.90
2019-05-29T03:04:59.922Z,96876.33
2019-05-29T03:05:29.900Z,96875.73
2019-05-29T03:05:58.453Z,96872.41
2019-05-29T03:06:30.304Z,96875.16
2019-05-29T03:06:59.475Z,96877.91
2019-05-29T03:07:28.706Z,96867.71
2019-05-29T03:07:59.172Z,96877.91
2019-05-29T03:08:32.433Z,96868.85
2019-05-29T03:09:01.236Z,96871.83
2019-05-29T03:09:33.883Z,96874.01
2019-05-29T03:10:02.977Z,96872.64
2019-05-29T03:10:33.095Z,96877.09
2019-05-29T03:11:03.113Z,96875.16
2019-05-29T03:11:34.259Z,96875.16
2019-05-29T03:12:02.931Z,96871.83
2019-05-29T03:12:33.698Z,96880.08
2019-05-29T03:13:02.752Z,96868.08
2019-05-29T03:13:33.671Z,96879.08
2019-05-29T03:14:02.324Z,96877.09
2019-05-29T03:14:31.796Z,96874.15
2019-05-29T03:15:02.148Z,96879.08
2019-05-29T03:15:38.574Z,96879.65
2019-05-29T03:16:12.242Z,96878.47
2019-05-29T03:16:38.473Z,96884.58
2019-05-29T03:17:08.030Z,96880.45
2019-05-29T03:17:36.948Z,96873.58
2019-05-29T03:18:05.412Z,96870.83
2019-05-29T03:18:35.066Z,96877.70
2019-05-29T03:19:04.755Z,96878.27
2019-05-29T03:19:34.690Z,96883.77
2019-05-29T03:20:04.091Z,96883.54
2019-05-29T03:20:34.594Z,96875.29
2019-05-29T03:21:04.896Z,96884.45
2019-05-29T03:21:35.622Z,96886.63
2019-05-29T03:22:04.032Z,96887.77
2019-05-29T03:22:35.133Z,96892.13
2019-05-29T03:23:05.087Z,96885.25
2019-05-29T03:23:36.166Z,96889.38
2019-05-29T03:24:04.978Z,96888.57
2019-05-29T03:24:35.107Z,96881.13
2019-05-29T03:25:08.685Z,96886.39
2019-05-29T03:25:38.783Z,96895.45
2019-05-29T03:26:07.144Z,96883.08
2019-05-29T03:26:35.822Z,96890.52
2019-05-29T03:27:05.490Z,96886.05
2019-05-29T03:27:35.110Z,96890.52
2019-05-29T03:28:03.823Z,96901.41
2019-05-29T03:28:34.972Z,96894.88
2019-05-29T03:29:04.504Z,96900.60
2019-05-29T03:29:34.445Z,96892.36
2019-05-29T03:30:04.518Z,96895.11
2019-05-29T03:30:41.230Z,96894.77
2019-05-29T03:31:04.270Z,96897.52
2019-05-29T03:31:39.669Z,96899.70
2019-05-29T03:32:04.893Z,96898.89
2019-05-29T03:32:45.740Z,96910.45
2019-05-29T03:33:06.564Z,96897.52
2019-05-29T03:33:47.087Z,96907.14
2019-05-29T03:34:06.839Z,96899.70
2019-05-29T03:34:42.305Z,96912.84
2019-05-29T03:35:08.102Z,96912.84
2019-05-29T03:35:43.956Z,96902.64
2019-05-29T03:36:07.351Z,96910.32
2019-05-29T03:36:43.828Z,96913.87
2019-05-29T03:37:08.144Z,96908.61
2019-05-29T03:37:38.678Z,96912.50
2019-05-29T03:38:08.993Z,96917.66
2019-05-29T03:38:38.605Z,96918.46
2019-05-29T03:39:09.953Z,96915.71
2019-05-29T03:39:39.125Z,96915.71
2019-05-29T03:40:08.079Z,96915.71
2019-05-29T03:40:38.697Z,96913.16
2019-05-29T03:41:08.290Z,96921.41
2019-05-29T03:41:38.981Z,96911.59
2019-05-29T03:42:07.661Z,96915.14
2019-05-29T03:42:38.721Z,96915.91
2019-05-29T03:43:08.429Z,96914.77
2019-05-29T03:43:38.558Z,96915.91
2019-05-29T03:44:10.317Z,96919.84
2019-05-29T03:44:38.681Z,96922.78
2019-05-29T03:45:08.295Z,96919.03
2019-05-29T03:45:39.604Z,96919.84
2019-05-29T03:46:07.879Z,96917.09
2019-05-29T03:46:43.063Z,96922.02
2019-05-29T03:47:07.308Z,96920.03
2019-05-29T03:47:37.241Z,96915.71
2019-05-29T03:48:06.996Z,96921.21
2019-05-29T03:48:36.071Z,96917.09
2019-05-29T03:49:04.945Z,96919.47
2019-05-29T03:49:35.170Z,96923.59
2019-05-29T03:50:05.469Z,96923.02
2019-05-29T03:50:34.987Z,96914.20
2019-05-29T03:51:04.447Z,96916.14
2019-05-29T03:51:35.167Z,96911.79
2019-05-29T03:52:03.261Z,96920.03
2019-05-29T03:52:34.183Z,96922.22
2019-05-29T03:53:03.257Z,96924.97
2019-05-29T03:53:33.590Z,96920.84
2019-05-29T03:54:01.799Z,96921.64
2019-05-29T03:54:32.553Z,96918.09
2019-05-29T03:55:01.218Z,96916.72
2019-05-29T03:55:31.536Z,96922.22
2019-05-29T03:56:00.287Z,96923.25
2019-05-29T03:56:30.593Z,96919.13
2019-05-29T03:57:00.077Z,96923.25
2019-05-29T03:57:30.263Z,96926.80
2019-05-29T03:57:59.885Z,96917.19
2019-05-29T03:58:29.418Z,96917.19
2019-05-29T03:58:59.574Z,96922.68
2019-05-29T03:59:30.674Z,96924.86
2019-05-29T03:59:59.262Z,96913.86
2019-05-29T04:00:34.199Z,96922.11
2019-05-29T04:00:58.713Z,96922.68
2019-05-29T04:01:29.120Z,96922.68
2019-05-29T04:01:57.634Z,96915.58
2019-05-29T04:02:26.788Z,96924.39
2019-05-29T04:02:55.468Z,96920.27
2019-05-29T04:03:24.657Z,96922.22
2019-05-29T04:03:52.949Z,96921.64
2019-05-29T04:04:21.651Z,96922.78
2019-05-29T04:04:50.690Z,96931.27
2019-05-29T04:05:19.615Z,96919.70
2019-05-29T04:05:47.875Z,96925.53
2019-05-29T04:06:16.814Z,96918.89
2019-05-29T04:06:47.397Z,96929.66
2019-05-29T04:07:15.717Z,96933.78
2019-05-29T04:07:44.383Z,96924.16
2019-05-29T04:08:13.249Z,96930.46
2019-05-29T04:08:42.232Z,96930.83
2019-05-29T04:09:11.146Z,96931.41
2019-05-29T04:09:39.559Z,96930.03
2019-05-29T04:10:08.645Z,96933.58
2019-05-29T04:10:39.476Z,96930.03
2019-05-29T04:11:08.033Z,96936.33
2019-05-29T04:11:37.845Z,96932.41
2019-05-29T04:12:07.048Z,96928.08
2019-05-29T04:12:37.779Z,96936.77
2019-05-29T04:13:06.780Z,96931.27
2019-05-29T04:13:36.273Z,96934.25
2019-05-29T04:14:06.799Z,96930.13
2019-05-29T04:14:37.731Z,96935.63
2019-05-29T04:15:08.110Z,96935.63
2019-05-29T04:15:38.636Z,96937.23
2019-05-29T04:16:07.707Z,96938.61
2019-05-29T04:16:58.133Z,96935.52
2019-05-29T04:17:08.108Z,96937.66
2019-05-29T04:17:37.914Z,96938.27
2019-05-29T04:18:08.539Z,96947.52
2019-05-29T04:18:38.096Z,96944.53
2019-05-29T04:19:07.601Z,96946.14
2019-05-29T04:19:38.392Z,96942.02
2019-05-29T04:20:08.336Z,96940.08
2019-05-29T04:20:38.724Z,96942.83
2019-05-29T04:21:07.633Z,96943.86
2019-05-29T04:21:38.715Z,96938.13
2019-05-29T04:22:09.933Z,96949.36
2019-05-29T04:22:41.944Z,96940.88
2019-05-29T04:23:10.894Z,96946.61
2019-05-29T04:23:39.357Z,96939.97
2019-05-29T04:24:08.285Z,96942.92
2019-05-29T04:24:39.697Z,96949.80
2019-05-29T04:25:08.553Z,96954.16
2019-05-29T04:25:41.989Z,96947.28
2019-05-29T04:26:08.231Z,96945.91
2019-05-29T04:26:41.846Z,96948.42
2019-05-29T04:27:13.871Z,96951.41
2019-05-29T04:27:42.986Z,96959.66
2019-05-29T04:28:11.650Z,96955.53
2019-05-29T04:28:40.803Z,96946.94
2019-05-29T04:29:11.884Z,96959.89
2019-05-29T04:29:42.255Z,96957.94
2019-05-29T04:30:11.670Z,96961.26
2019-05-29T04:30:42.073Z,96954.62
2019-05-29T04:31:10.791Z,96957.37
2019-05-29T04:31:40.511Z,96953.81
2019-05-29T04:32:09.540Z,96961.49
2019-05-29T04:32:38.694Z,96964.45
2019-05-29T04:33:08.022Z,96965.05
2019-05-29T04:33:39.669Z,96963.30
2019-05-29T04:34:08.265Z,96964.91
2019-05-29T04:34:38.002Z,96962.50
2019-05-29T04:35:08.031Z,96957.57
2019-05-29T04:35:37.023Z,96962.50
2019-05-29T04:36:06.389Z,96968.57
2019-05-29T04:36:36.905Z,96968.00
2019-05-29T04:37:07.414Z,96964.24
2019-05-29T04:37:37.048Z,96969.17
2019-05-29T04:38:07.043Z,96968.57
2019-05-29T04:38:38.455Z,96969.74
2019-05-29T04:39:08.001Z,96967.56
2019-05-29T04:39:36.957Z,96970.55
2019-05-29T04:40:08.032Z,96969.74
2019-05-29T04:40:39.358Z,96964.81
2019-05-29T04:41:08.879Z,96969.51
2019-05-29T04:41:38.841Z,96970.08
2019-05-29T04:42:09.434Z,96974.77
2019-05-29T04:42:40.010Z,96973.63
2019-05-29T04:43:09.681Z,96968.70
2019-05-29T04:43:39.884Z,96965.15
2019-05-29T04:44:09.697Z,96972.83
2019-05-29T04:44:41.144Z,96974.77
2019-05-29T04:45:10.114Z,96979.13
2019-05-29T04:45:40.067Z,96977.53
2019-05-29T04:46:09.229Z,96970.08
2019-05-29T04:46:39.098Z,96971.45
2019-05-29T04:47:12.170Z,96975.01
2019-05-29T04:47:40.229Z,96970.88
2019-05-29T04:48:09.120Z,96980.51
2019-05-29T04:48:40.234Z,96983.26
2019-05-29T04:49:08.658Z,96981.88
2019-05-29T04:49:37.968Z,96981.31
2019-05-29T04:50:08.127Z,96982.69
2019-05-29T04:50:38.700Z,96979.13
2019-05-29T04:51:07.824Z,96987.05
2019-05-29T04:51:37.333Z,96982.31
2019-05-29T04:52:06.805Z,96987.05
2019-05-29T04:52:37.870Z,96987.05
2019-05-29T04:53:07.860Z,96983.69
2019-05-29T04:53:37.779Z,96988.63
2019-05-29T04:54:08.070Z,96982.92
2019-05-29T04:54:37.666Z,96983.48
2019-05-29T04:55:06.640Z,96987.25
2019-05-29T04:55:34.912Z,96989.80
2019-05-29T04:56:03.825Z,96988.28
2019-05-29T04:56:32.961Z,96983.92
2019-05-29T04:57:01.846Z,96985.30
2019-05-29T04:57:30.832Z,96985.53
2019-05-29T04:57:59.637Z,96983.59
2019-05-29T04:58:28.876Z,96984.16
2019-05-29T04:58:58.447Z,96998.37
2019-05-29T04:59:28.795Z,96988.75
2019-05-29T04:59:59.347Z,96987.38
2019-05-29T05:00:29.018Z,96993.31
2019-05-29T05:00:59.560Z,96988.95
2019-05-29T05:01:28.995Z,96991.94
2019-05-29T05:01:58.468Z,96996.06
2019-05-29T05:02:27.489Z,96994.11
2019-05-29T05:02:56.325Z,96996.30
2019-05-29T05:03:25.197Z,97000.42
2019-05-29T05:03:54.813Z,96999.84
2019-05-29T05:04:23.497Z,96997.67
2019-05-29T05:04:52.726Z,97008.09
2019-05-29T05:05:21.098Z,97002.37
2019-05-29T05:05:50.058Z,97010.05
2019-05-29T05:06:19.007Z,96997.67
2019-05-29T05:06:47.918Z,96998.24
2019-05-29T05:07:16.720Z,96999.84
2019-05-29T05:07:45.659Z,97003.97
2019-05-29T05:08:15.032Z,97012.45
2019-05-29T05:08:44.987Z,97003.97
2019-05-29T05:09:13.816Z,97011.08
2019-05-29T05:09:43.258Z,97012.45
2019-05-29T05:10:12.386Z,97010.48
2019-05-29T05:10:42.317Z,97014.03
2019-05-29T05:11:11.190Z,97014.03
2019-05-29T05:11:40.721Z,97011.28
2019-05-29T05:12:10.287Z,97009.34
2019-05-29T05:12:40.060Z,97004.98
2019-05-29T05:13:08.934Z,97003.41
2019-05-29T05:13:38.117Z,97010.28
2019-05-29T05:14:07.570Z,97013.03
2019-05-29T05:14:37.826Z,97015.78
2019-05-29T05:15:07.768Z,97016.58
2019-05-29T05:15:40.153Z,97015.20
2019-05-29T05:16:11.899Z,97012.22
2019-05-29T05:16:41.591Z,97015.41
2019-05-29T05:17:24.977Z,97014.41
2019-05-29T05:17:41.398Z,97013.03
2019-05-29T05:18:10.446Z,97019.34
2019-05-29T05:18:40.274Z,97016.58
2019-05-29T05:19:09.026Z,97009.70
2019-05-29T05:19:38.328Z,97015.78
2019-05-29T05:20:07.310Z,97014.17
2019-05-29T05:20:36.431Z,97019.10
2019-05-29T05:21:05.054Z,97016.92
2019-05-29T05:21:34.082Z,97020.48
2019-05-29T05:22:03.558Z,97015.55
2019-05-29T05:22:32.555Z,97014.97
2019-05-29T05:23:01.499Z,97018.30
2019-05-29T05:23:30.426Z,97019.67
2019-05-29T05:23:59.245Z,97026.78
2019-05-29T05:24:30.353Z,97022.86
2019-05-29T05:25:00.012Z,97021.85
2019-05-29T05:25:29.936Z,97015.55
2019-05-29T05:25:59.278Z,97017.49
2019-05-29T05:26:30.403Z,97020.24
2019-05-29T05:26:59.686Z,97016.35
2019-05-29T05:27:30.120Z,97019.10
2019-05-29T05:27:59.072Z,97018.30
2019-05-29T05:28:28.360Z,97020.48
2019-05-29T05:28:58.446Z,97021.28
2019-05-29T05:29:27.400Z,97017.73
2019-05-29T05:29:56.306Z,97018.53
2019-05-29T05:30:26.249Z,97025.41
2019-05-29T05:30:56.337Z,97025.41
2019-05-29T05:31:25.187Z,97027.58
2019-05-29T05:31:53.987Z,97025.61
2019-05-29T05:32:24.267Z,97027.22
2019-05-29T05:32:52.825Z,97029.39
2019-05-29T05:33:21.774Z,97017.59
2019-05-29T05:33:51.106Z,97025.84
2019-05-29T05:34:23.026Z,97022.52
2019-05-29T05:34:51.598Z,97030.77
2019-05-29T05:35:20.938Z,97022.75
2019-05-29T05:35:50.198Z,97033.19
2019-05-29T05:36:19.678Z,97031.81
2019-05-29T05:36:48.107Z,97035.56
2019-05-29T05:37:17.064Z,97032.24
2019-05-29T05:37:46.067Z,97027.91
2019-05-29T05:38:16.227Z,97029.49
2019-05-29T05:38:44.471Z,97030.87
2019-05-29T05:39:13.287Z,97034.66
2019-05-29T05:39:42.418Z,97034.09
2019-05-29T05:40:11.224Z,97034.09
2019-05-29T05:40:41.859Z,97036.50
2019-05-29T05:41:10.360Z,97031.00
2019-05-29T05:41:41.083Z,97041.20
2019-05-29T05:42:10.716Z,97028.45
2019-05-29T05:42:39.369Z,97034.75
2019-05-29T05:43:23.086Z,97032.58
2019-05-29T05:43:39.113Z,97032.58
2019-05-29T05:44:08.365Z,97030.06
2019-05-29T05:44:37.152Z,97041.06
2019-05-29T05:45:07.734Z,97035.22
2019-05-29T05:45:37.119Z,97039.11
2019-05-29T05:46:06.008Z,97036.13
2019-05-29T05:46:34.977Z,97038.64